createdAt,value
2022-10-01T00:01:25.740Z,92676.78
2022-10-01T00:04:29.607Z,92689.78
2022-10-01T00:07:44.275Z,92671.88
2022-10-01T00:10:48.851Z,92677.66
2022-10-01T00:13:53.949Z,92689.94
2022-10-01T00:16:58.050Z,92693.00
2022-10-01T00:20:10.521Z,92704.16
2022-10-01T00:23:18.195Z,92694.16
2022-10-01T00:26:24.704Z,92693.16
2022-10-01T00:29:28.811Z,92688.94
2022-10-01T00:32:33.001Z,92693.94
2022-10-01T00:35:38.365Z,92692.72
2022-10-01T00:38:42.791Z,92696.69
2022-10-01T00:41:47.432Z,92707.50
2022-10-01T00:44:51.425Z,92706.22
2022-10-01T00:47:59.111Z,92722.84
2022-10-01T00:51:02.838Z,92747.91
2022-10-01T00:54:16.926Z,92747.03
2022-10-01T00:57:25.692Z,92758.88
2022-10-01T01:00:29.276Z,92766.19
2022-10-01T01:03:32.987Z,92769.75
2022-10-01T01:06:36.551Z,92773.19
2022-10-01T01:09:46.779Z,92774.69
2022-10-01T01:13:16.130Z,92776.94
2022-10-01T01:16:34.487Z,92773.13
2022-10-01T01:19:56.374Z,92767.25
2022-10-01T01:23:19.533Z,92775.97
2022-10-01T01:26:43.177Z,92780.66
2022-10-01T01:30:06.672Z,92778.19
2022-10-01T01:33:18.521Z,92778.84
2022-10-01T01:36:30.306Z,92786.38
2022-10-01T01:39:35.970Z,92781.31
2022-10-01T01:42:43.572Z,92780.69
2022-10-01T01:45:50.656Z,92792.59
2022-10-01T01:48:54.525Z,92799.88
2022-10-01T01:52:14.169Z,92799.44
2022-10-01T01:55:17.168Z,92796.50
2022-10-01T01:58:21.799Z,92802.16
2022-10-01T02:01:38.536Z,92811.13
2022-10-01T02:04:48.951Z,92818.66
2022-10-01T02:08:17.469Z,92820.59
2022-10-01T02:11:29.470Z,92821.06
2022-10-01T02:14:51.571Z,92823.84
2022-10-01T02:18:04.340Z,92827.56
2022-10-01T02:21:11.538Z,92838.81
2022-10-01T02:24:25.211Z,92844.97
2022-10-01T02:27:37.386Z,92844.16
2022-10-01T02:30:43.374Z,92854.75
2022-10-01T02:33:48.690Z,92859.97
2022-10-01T02:36:53.067Z,92864.75
2022-10-01T02:40:03.420Z,92868.94
2022-10-01T02:43:13.401Z,92862.75
2022-10-01T02:46:28.916Z,92867.44
2022-10-01T02:49:34.544Z,92870.84
2022-10-01T02:52:53.567Z,92868.19
2022-10-01T02:55:59.259Z,92878.38
2022-10-01T02:59:02.915Z,92879.84
2022-10-01T03:02:06.537Z,92885.06
2022-10-01T03:05:10.394Z,92891.41
2022-10-01T03:08:14.084Z,92889.19
2022-10-01T03:11:18.090Z,92887.53
2022-10-01T03:14:21.756Z,92879.09
2022-10-01T03:17:25.707Z,92876.56
2022-10-01T03:20:29.048Z,92865.94
2022-10-01T03:23:32.721Z,92864.97
2022-10-01T03:26:37.092Z,92855.09
2022-10-01T03:29:41.186Z,92863.16
2022-10-01T03:32:44.217Z,92855.91
2022-10-01T03:35:47.652Z,92861.53
2022-10-01T03:38:50.611Z,92849.09
2022-10-01T03:41:54.234Z,92858.09
2022-10-01T03:44:58.050Z,92873.38
2022-10-01T03:48:02.141Z,92871.31
2022-10-01T03:51:06.344Z,92878.16
2022-10-01T03:54:10.393Z,92882.81
2022-10-01T03:57:14.033Z,92890.97
2022-10-01T04:00:18.939Z,92903.50
2022-10-01T04:03:22.827Z,92892.00
2022-10-01T04:06:26.310Z,92902.44
2022-10-01T04:09:29.352Z,92892.41
2022-10-01T04:12:32.742Z,92891.44
2022-10-01T04:15:36.364Z,92897.97
2022-10-01T04:18:40.216Z,92901.91
2022-10-01T04:21:43.298Z,92894.00
2022-10-01T04:24:47.841Z,92903.69
2022-10-01T04:28:02.944Z,92895.53
2022-10-01T04:31:24.691Z,92894.06
2022-10-01T04:34:47.659Z,92911.88
2022-10-01T04:38:04.364Z,92906.56
2022-10-01T04:41:08.174Z,92907.88
2022-10-01T04:44:12.075Z,92920.59
2022-10-01T04:47:15.837Z,92936.44
2022-10-01T04:50:21.032Z,92933.25
2022-10-01T04:53:25.899Z,92937.47
2022-10-01T04:56:29.091Z,92947.63
2022-10-01T04:59:32.417Z,92950.19
2022-10-01T05:02:36.409Z,92955.66
2022-10-01T05:05:39.457Z,92948.06
2022-10-01T05:08:42.806Z,92961.00
2022-10-01T05:11:46.539Z,92957.78
2022-10-01T05:14:49.908Z,92957.53
2022-10-01T05:17:53.600Z,92962.28
2022-10-01T05:20:57.594Z,92952.19
2022-10-01T05:24:01.263Z,92962.00
2022-10-01T05:27:04.884Z,92963.44
2022-10-01T05:30:11.076Z,92972.31
2022-10-01T05:33:14.112Z,92978.22
2022-10-01T05:36:18.020Z,92974.34
2022-10-01T05:39:21.018Z,92976.31
2022-10-01T05:42:24.621Z,92971.66
2022-10-01T05:45:32.333Z,92970.31
2022-10-01T05:48:37.668Z,92980.88
2022-10-01T05:51:40.642Z,92977.41
2022-10-01T05:54:44.915Z,92980.50
2022-10-01T05:58:02.251Z,92985.72
2022-10-01T06:01:05.614Z,92981.56
2022-10-01T06:04:11.344Z,92989.09
2022-10-01T06:07:15.084Z,92995.88
2022-10-01T06:10:19.173Z,92993.44
2022-10-01T06:13:22.253Z,93013.31
2022-10-01T06:16:27.181Z,92997.78
2022-10-01T06:19:30.228Z,93003.06
2022-10-01T06:22:33.534Z,93020.00
2022-10-01T06:25:38.881Z,93022.28
2022-10-01T06:28:42.882Z,93045.09
2022-10-01T06:31:46.698Z,93034.28
2022-10-01T06:34:50.836Z,93042.78
2022-10-01T06:37:54.497Z,93041.03
2022-10-01T06:41:00.926Z,93043.41
2022-10-01T06:44:04.666Z,93043.88
2022-10-01T06:47:08.749Z,93058.75
2022-10-01T06:50:12.606Z,93063.34
2022-10-01T06:53:18.345Z,93073.09
2022-10-01T06:56:21.955Z,93071.81
2022-10-01T06:59:25.897Z,93075.03
2022-10-01T07:02:30.691Z,93068.56
2022-10-01T07:05:34.791Z,93074.06
2022-10-01T07:08:39.130Z,93071.69
2022-10-01T07:11:43.721Z,93079.69
2022-10-01T07:14:47.379Z,93065.88
2022-10-01T07:17:51.949Z,93072.06
2022-10-01T07:20:57.969Z,93080.47
2022-10-01T07:24:01.327Z,93084.44
2022-10-01T07:27:07.354Z,93087.78
2022-10-01T07:30:11.570Z,93109.56
2022-10-01T07:33:18.829Z,93098.13
2022-10-01T07:36:22.145Z,93095.59
2022-10-01T07:39:25.840Z,93090.94
2022-10-01T07:42:29.954Z,93100.28
2022-10-01T07:45:33.734Z,93095.19
2022-10-01T07:48:36.816Z,93093.94
2022-10-01T07:51:39.845Z,93087.66
2022-10-01T07:54:42.864Z,93101.72
2022-10-01T07:57:52.102Z,93102.81
2022-10-01T08:00:58.968Z,93101.97
2022-10-01T08:04:22.915Z,93101.28
2022-10-01T08:07:25.895Z,93105.13
2022-10-01T08:10:29.385Z,93109.34
2022-10-01T08:13:33.087Z,93116.41
2022-10-01T08:16:40.218Z,93118.28
2022-10-01T08:19:43.529Z,93121.00
2022-10-01T08:22:46.918Z,93113.69
2022-10-01T08:25:49.854Z,93121.75
2022-10-01T08:28:56.166Z,93139.84
2022-10-01T08:31:59.487Z,93142.25
2022-10-01T08:35:05.210Z,93138.56
2022-10-01T08:38:10.359Z,93141.66
2022-10-01T08:41:44.217Z,93152.47
2022-10-01T08:44:47.605Z,93160.28
2022-10-01T08:48:17.518Z,93154.38
2022-10-01T08:51:29.905Z,93159.75
2022-10-01T08:55:03.399Z,93158.03
2022-10-01T08:58:12.303Z,93163.56
2022-10-01T09:01:15.399Z,93158.00
2022-10-01T09:04:18.611Z,93171.66
2022-10-01T09:07:48.549Z,93170.59
2022-10-01T09:11:01.369Z,93194.59
2022-10-01T09:14:20.067Z,93187.47
2022-10-01T09:17:42.163Z,93193.13
2022-10-01T09:20:54.029Z,93197.13
2022-10-01T09:24:05.095Z,93197.66
2022-10-01T09:27:19.455Z,93198.28
2022-10-01T09:30:25.748Z,93188.41
2022-10-01T09:33:34.513Z,93185.28
2022-10-01T09:37:00.412Z,93187.78
2022-10-01T09:40:35.598Z,93193.78
2022-10-01T09:43:40.936Z,93212.09
2022-10-01T09:46:46.750Z,93208.31
2022-10-01T09:49:50.394Z,93202.13
2022-10-01T09:52:55.695Z,93212.19
2022-10-01T09:56:05.971Z,93219.25
2022-10-01T09:59:17.105Z,93207.78
2022-10-01T10:02:38.512Z,93215.44
2022-10-01T10:05:50.332Z,93211.78
2022-10-01T10:08:55.756Z,93215.53
2022-10-01T10:12:00.777Z,93222.13
2022-10-01T10:15:11.083Z,93223.38
2022-10-01T10:18:23.684Z,93239.63
2022-10-01T10:21:30.800Z,93226.09
2022-10-01T10:24:36.174Z,93237.81
2022-10-01T10:27:39.606Z,93231.56
2022-10-01T10:30:44.144Z,93245.44
2022-10-01T10:33:53.925Z,93256.88
2022-10-01T10:37:05.721Z,93266.41
2022-10-01T10:40:09.165Z,93266.53
2022-10-01T10:43:21.873Z,93270.00
2022-10-01T10:46:36.294Z,93274.72
2022-10-01T10:49:46.682Z,93278.50
2022-10-01T10:52:49.601Z,93287.84
2022-10-01T10:56:01.995Z,93285.75
2022-10-01T10:59:11.391Z,93290.38
2022-10-01T11:02:21.718Z,93291.47
2022-10-01T11:05:29.520Z,93295.94
2022-10-01T11:08:34.219Z,93298.16
2022-10-01T11:11:37.265Z,93312.47
2022-10-01T11:15:07.623Z,93310.28
2022-10-01T11:18:13.913Z,93320.34
2022-10-01T11:21:49.380Z,93326.50
2022-10-01T11:25:19.983Z,93339.66
2022-10-01T11:28:58.837Z,93354.66
2022-10-01T11:32:17.929Z,93349.72
2022-10-01T11:35:29.712Z,93358.41
2022-10-01T11:38:36.808Z,93367.06
2022-10-01T11:41:54.135Z,93362.88
2022-10-01T11:45:05.160Z,93356.09
2022-10-01T11:48:24.991Z,93357.06
2022-10-01T11:51:38.992Z,93352.72
2022-10-01T11:54:56.344Z,93359.91
2022-10-01T11:58:42.050Z,93356.25
2022-10-01T12:02:12.118Z,93365.97
2022-10-01T12:05:32.920Z,93369.66
2022-10-01T12:08:39.064Z,93366.72
2022-10-01T12:12:11.490Z,93371.66
2022-10-01T12:15:24.054Z,93369.50
2022-10-01T12:18:46.558Z,93367.13
2022-10-01T12:21:53.467Z,93368.66
2022-10-01T12:24:57.596Z,93366.28
2022-10-01T12:28:26.872Z,93366.09
2022-10-01T12:32:14.255Z,93372.66
2022-10-01T12:35:49.721Z,93373.16
2022-10-01T12:39:05.195Z,93363.09
2022-10-01T12:42:39.157Z,93375.13
2022-10-01T12:45:50.726Z,93370.28
2022-10-01T12:49:06.772Z,93380.59
2022-10-01T12:52:38.883Z,93372.59
2022-10-01T12:56:14.026Z,93381.22
2022-10-01T12:59:50.271Z,93381.47
2022-10-01T13:02:59.888Z,93384.97
2022-10-01T13:06:05.948Z,93387.38
2022-10-01T13:09:29.793Z,93383.34
2022-10-01T13:13:05.229Z,93385.03
2022-10-01T13:16:34.142Z,93379.84
2022-10-01T13:19:58.702Z,93389.03
2022-10-01T13:23:09.036Z,93395.13
2022-10-01T13:26:45.740Z,93397.84
2022-10-01T13:30:00.831Z,93407.69
2022-10-01T13:33:06.074Z,93406.53
2022-10-01T13:36:13.786Z,93408.16
2022-10-01T13:39:24.975Z,93415.88
2022-10-01T13:42:32.294Z,93411.94
2022-10-01T13:45:38.936Z,93422.91
2022-10-01T13:48:48.937Z,93429.84
2022-10-01T13:51:54.185Z,93429.66
2022-10-01T13:54:59.754Z,93433.16
2022-10-01T13:58:21.627Z,93454.22
2022-10-01T14:01:25.189Z,93443.94
2022-10-01T14:04:39.736Z,93447.88
2022-10-01T14:07:45.770Z,93452.97
2022-10-01T14:11:32.701Z,93454.25
2022-10-01T14:15:02.268Z,93459.44
2022-10-01T14:18:10.669Z,93455.72
2022-10-01T14:21:35.164Z,93451.63
2022-10-01T14:25:08.227Z,93447.91
2022-10-01T14:28:33.611Z,93455.31
2022-10-01T14:31:50.143Z,93454.25
2022-10-01T14:35:20.237Z,93460.63
2022-10-01T14:38:24.148Z,93453.75
2022-10-01T14:41:28.207Z,93456.50
2022-10-01T14:44:39.150Z,93464.63
2022-10-01T14:47:43.225Z,93476.47
2022-10-01T14:50:51.519Z,93468.44
2022-10-01T14:53:59.231Z,93481.25
2022-10-01T14:57:04.962Z,93483.88
2022-10-01T15:00:20.439Z,93489.28
2022-10-01T15:03:23.828Z,93483.22
2022-10-01T15:06:30.466Z,93490.44
2022-10-01T15:09:35.037Z,93498.66
2022-10-01T15:12:42.352Z,93497.03
2022-10-01T15:15:46.645Z,93501.78
2022-10-01T15:18:56.324Z,93506.25
2022-10-01T15:22:02.012Z,93508.81
2022-10-01T15:25:06.341Z,93496.09
2022-10-01T15:28:17.635Z,93509.88
2022-10-01T15:31:23.045Z,93498.69
2022-10-01T15:34:28.215Z,93502.63
2022-10-01T15:37:36.010Z,93494.28
2022-10-01T15:40:43.166Z,93509.63
2022-10-01T15:43:46.787Z,93509.47
2022-10-01T15:46:50.101Z,93507.00
2022-10-01T15:50:02.939Z,93509.84
2022-10-01T15:53:22.839Z,93512.16
2022-10-01T15:56:26.529Z,93510.53
2022-10-01T15:59:31.253Z,93513.13
2022-10-01T16:02:35.324Z,93528.72
2022-10-01T16:05:47.408Z,93519.78
2022-10-01T16:09:17.686Z,93519.13
2022-10-01T16:12:23.490Z,93526.50
2022-10-01T16:15:31.800Z,93522.84
2022-10-01T16:18:37.907Z,93531.09
2022-10-01T16:21:42.310Z,93536.63
2022-10-01T16:24:49.941Z,93540.97
2022-10-01T16:28:04.708Z,93539.72
2022-10-01T16:31:08.162Z,93546.59
2022-10-01T16:34:14.821Z,93548.09
2022-10-01T16:37:18.522Z,93552.91
2022-10-01T16:40:26.176Z,93555.56
2022-10-01T16:43:29.150Z,93556.72
2022-10-01T16:46:34.218Z,93557.03
2022-10-01T16:49:37.954Z,93560.03
2022-10-01T16:52:41.822Z,93564.25
2022-10-01T16:55:46.867Z,93572.72
2022-10-01T16:58:50.295Z,93576.84
2022-10-01T17:01:56.876Z,93583.25
2022-10-01T17:05:01.880Z,93588.63
2022-10-01T17:08:11.651Z,93589.19
2022-10-01T17:11:15.884Z,93590.66
2022-10-01T17:14:21.577Z,93601.88
2022-10-01T17:17:25.231Z,93599.94
2022-10-01T17:20:30.611Z,93599.03
2022-10-01T17:23:36.650Z,93609.56
2022-10-01T17:26:41.871Z,93612.88
2022-10-01T17:29:46.029Z,93615.25
2022-10-01T17:32:49.588Z,93609.19
2022-10-01T17:35:55.543Z,93626.31
2022-10-01T17:38:59.323Z,93617.59
2022-10-01T17:42:02.860Z,93625.00
2022-10-01T17:45:09.043Z,93625.50
2022-10-01T17:48:12.633Z,93626.75
2022-10-01T17:51:17.836Z,93635.63
2022-10-01T17:54:22.145Z,93651.75
2022-10-01T17:57:26.260Z,93649.66
2022-10-01T18:00:29.526Z,93643.88
2022-10-01T18:03:33.454Z,93640.47
2022-10-01T18:06:37.199Z,93643.72
2022-10-01T18:09:42.847Z,93651.56
2022-10-01T18:12:46.992Z,93638.59
2022-10-01T18:16:03.487Z,93651.75
2022-10-01T18:22:31.032Z,93656.19
2022-10-01T18:25:35.300Z,93658.88
2022-10-01T18:28:39.116Z,93665.03
2022-10-01T18:31:45.840Z,93663.94
2022-10-01T18:35:01.796Z,93658.69
2022-10-01T18:38:30.782Z,93666.97
2022-10-01T18:41:39.513Z,93669.53
2022-10-01T18:44:43.255Z,93675.78
2022-10-01T18:48:07.491Z,93673.94
2022-10-01T18:51:37.929Z,93673.94
2022-10-01T18:55:05.022Z,93673.94
2022-10-01T18:58:27.537Z,93670.38
2022-10-01T19:02:07.867Z,93666.22
2022-10-01T19:05:44.673Z,93677.19
2022-10-01T19:09:06.645Z,93675.53
2022-10-01T19:12:18.847Z,93673.06
2022-10-01T19:15:53.194Z,93683.41
2022-10-01T19:19:16.063Z,93690.91
2022-10-01T19:22:39.901Z,93681.41
2022-10-01T19:26:02.625Z,93676.25
2022-10-01T19:29:32.774Z,93681.13
2022-10-01T19:32:45.511Z,93686.56
2022-10-01T19:35:54.172Z,93685.44
2022-10-01T19:39:03.640Z,93680.75
2022-10-01T19:42:30.954Z,93679.44
2022-10-01T19:45:45.634Z,93687.34
2022-10-01T19:49:10.357Z,93690.81
2022-10-01T19:52:19.188Z,93681.56
2022-10-01T19:55:24.981Z,93680.03
2022-10-01T19:58:31.425Z,93675.38
2022-10-01T20:01:45.505Z,93683.13
2022-10-01T20:05:12.375Z,93677.63
2022-10-01T20:08:22.528Z,93679.41
2022-10-01T20:11:32.056Z,93684.13
2022-10-01T20:15:16.411Z,93693.38
2022-10-01T20:19:01.638Z,93693.28
2022-10-01T20:22:23.700Z,93697.41
2022-10-01T20:25:48.120Z,93684.13
2022-10-01T20:29:27.768Z,93696.44
2022-10-01T20:32:48.290Z,93694.44
2022-10-01T20:36:07.223Z,93693.09
2022-10-01T20:39:23.608Z,93687.03
2022-10-01T20:42:37.796Z,93697.94
2022-10-01T20:45:42.248Z,93698.63
2022-10-01T20:48:50.695Z,93705.53
2022-10-01T20:52:27.232Z,93708.53
2022-10-01T20:55:39.612Z,93725.69
2022-10-01T20:58:59.660Z,93724.31
2022-10-01T21:02:14.290Z,93732.50
2022-10-01T21:05:37.218Z,93732.25
2022-10-01T21:08:50.595Z,93740.13
2022-10-01T21:12:16.722Z,93752.72
2022-10-01T21:15:23.791Z,93748.69
2022-10-01T21:19:14.943Z,93763.94
2022-10-01T21:22:31.488Z,93758.56
2022-10-01T21:25:53.755Z,93766.19
2022-10-01T21:29:09.108Z,93762.31
2022-10-01T21:32:33.171Z,93768.53
2022-10-01T21:36:03.707Z,93761.91
2022-10-01T21:39:33.001Z,93773.09
2022-10-01T21:42:40.086Z,93755.66
2022-10-01T21:46:06.045Z,93752.78
2022-10-01T21:49:36.845Z,93750.44
2022-10-01T21:52:48.021Z,93759.81
2022-10-01T21:55:56.637Z,93748.94
2022-10-01T21:59:08.870Z,93739.81
2022-10-01T22:02:31.705Z,93757.91
2022-10-01T22:05:53.695Z,93760.13
2022-10-01T22:09:19.637Z,93771.72
2022-10-01T22:12:23.533Z,93760.81
2022-10-01T22:15:44.128Z,93757.66
2022-10-01T22:18:52.269Z,93763.03
2022-10-01T22:22:19.149Z,93763.03
2022-10-01T22:25:22.920Z,93765.78
2022-10-01T22:28:36.880Z,93780.84
2022-10-01T22:31:42.284Z,93785.16
2022-10-01T22:34:54.903Z,93793.84
2022-10-01T22:38:15.203Z,93784.56
2022-10-01T22:41:27.951Z,93794.78
2022-10-01T22:44:32.179Z,93798.97
2022-10-01T22:48:16.215Z,93797.16
2022-10-01T22:51:25.720Z,93801.03
2022-10-01T22:54:38.340Z,93809.03
2022-10-01T22:57:45.124Z,93838.63
2022-10-01T23:01:20.063Z,93842.38
2022-10-01T23:04:34.792Z,93847.03
2022-10-01T23:07:48.629Z,93859.38
2022-10-01T23:11:11.293Z,93851.09
2022-10-01T23:14:51.856Z,93858.97
2022-10-01T23:18:03.792Z,93859.41
2022-10-01T23:21:19.104Z,93875.41
2022-10-01T23:24:23.155Z,93877.22
2022-10-01T23:28:08.444Z,93880.88
2022-10-01T23:31:35.545Z,93900.38
2022-10-01T23:35:08.806Z,93912.78
2022-10-01T23:38:21.816Z,93906.53
2022-10-01T23:41:35.497Z,93918.97
2022-10-01T23:44:52.676Z,93928.94
2022-10-01T23:48:18.032Z,93929.25
2022-10-01T23:51:29.257Z,93944.16
2022-10-01T23:54:54.303Z,93947.66
2022-10-01T23:58:03.168Z,93935.47
